sensor_id;sensor_type;location;lat;lon;timestamp;pressure;altitude;pressure_sealevel;temperature;humidity
70815;BME280;58428;49.478;10.986;2023-05-23T00:02:09;97986.50;;;19.14;100.00
70815;BME280;58428;49.478;10.986;2023-05-23T00:04:37;97992.00;;;19.10;100.00
70815;BME280;58428;49.478;10.986;2023-05-23T00:07:03;97995.94;;;19.09;100.00
70815;BME280;58428;49.478;10.986;2023-05-23T00:09:28;97990.44;;;19.09;100.00
70815;BME280;58428;49.478;10.986;2023-05-23T00:11:55;97991.22;;;19.10;100.00
70815;BME280;58428;49.478;10.986;2023-05-23T00:14:20;97995.94;;;19.09;100.00
70815;BME280;58428;49.478;10.986;2023-05-23T00:16:48;97998.25;;;19.00;100.00
70815;BME280;58428;49.478;10.986;2023-05-23T00:19:14;97997.84;;;18.95;100.00
70815;BME280;58428;49.478;10.986;2023-05-23T00:21:44;98001.75;;;18.90;100.00
70815;BME280;58428;49.478;10.986;2023-05-23T00:24:13;98008.81;;;18.91;100.00
70815;BME280;58428;49.478;10.986;2023-05-23T00:26:44;98010.75;;;18.87;100.00
70815;BME280;58428;49.478;10.986;2023-05-23T00:29:09;98008.00;;;18.87;100.00
70815;BME280;58428;49.478;10.986;2023-05-23T00:31:40;97999.78;;;18.91;100.00
70815;BME280;58428;49.478;10.986;2023-05-23T00:34:06;97997.03;;;18.91;100.00
70815;BME280;58428;49.478;10.986;2023-05-23T00:36:32;98000.94;;;18.86;100.00
70815;BME280;58428;49.478;10.986;2023-05-23T00:39:02;98007.63;;;18.85;100.00
70815;BME280;58428;49.478;10.986;2023-05-23T00:41:28;98017.00;;;18.84;100.00
70815;BME280;58428;49.478;10.986;2023-05-23T00:43:55;98017.38;;;18.83;100.00
70815;BME280;58428;49.478;10.986;2023-05-23T00:46:22;98015.03;;;18.75;100.00
70815;BME280;58428;49.478;10.986;2023-05-23T00:48:47;98022.84;;;18.73;100.00
70815;BME280;58428;49.478;10.986;2023-05-23T00:51:13;98015.75;;;18.61;100.00
70815;BME280;58428;49.478;10.986;2023-05-23T00:53:39;98021.63;;;18.60;100.00
70815;BME280;58428;49.478;10.986;2023-05-23T00:56:05;98022.44;;;18.60;100.00
70815;BME280;58428;49.478;10.986;2023-05-23T00:58:30;98027.50;;;18.55;100.00
70815;BME280;58428;49.478;10.986;2023-05-23T01:00:56;98025.50;;;18.52;100.00
70815;BME280;58428;49.478;10.986;2023-05-23T01:03:24;98027.44;;;18.48;100.00
70815;BME280;58428;49.478;10.986;2023-05-23T01:05:54;98024.31;;;18.46;100.00
70815;BME280;58428;49.478;10.986;2023-05-23T01:08:20;98029.78;;;18.42;100.00
70815;BME280;58428;49.478;10.986;2023-05-23T01:10:46;98023.91;;;18.37;100.00
70815;BME280;58428;49.478;10.986;2023-05-23T01:13:39;98019.22;;;18.38;100.00
70815;BME280;58428;49.478;10.986;2023-05-23T01:16:12;98018.03;;;18.35;100.00
70815;BME280;58428;49.478;10.986;2023-05-23T01:18:45;98021.53;;;18.32;100.00
70815;BME280;58428;49.478;10.986;2023-05-23T01:21:16;98016.03;;;18.32;100.00
70815;BME280;58428;49.478;10.986;2023-05-23T01:29:13;98014.03;;;18.19;100.00
70815;BME280;58428;49.478;10.986;2023-05-23T01:31:43;98018.69;;;18.15;100.00
70815;BME280;58428;49.478;10.986;2023-05-23T01:34:11;98013.59;;;18.13;100.00
70815;BME280;58428;49.478;10.986;2023-05-23T01:36:42;98019.38;;;18.02;100.00
70815;BME280;58428;49.478;10.986;2023-05-23T01:39:09;98014.31;;;18.00;100.00
70815;BME280;58428;49.478;10.986;2023-05-23T01:41:35;98015.84;;;17.94;100.00
70815;BME280;58428;49.478;10.986;2023-05-23T01:44:02;98018.16;;;17.92;100.00
70815;BME280;58428;49.478;10.986;2023-05-23T01:46:30;98022.91;;;17.99;100.00
70815;BME280;58428;49.478;10.986;2023-05-23T01:48:57;98015.09;;;18.01;100.00
70815;BME280;58428;49.478;10.986;2023-05-23T01:51:23;98009.59;;;17.97;100.00
70815;BME280;58428;49.478;10.986;2023-05-23T01:53:49;98014.28;;;17.97;100.00
70815;BME280;58428;49.478;10.986;2023-05-23T01:56:15;98018.97;;;18.00;100.00
70815;BME280;58428;49.478;10.986;2023-05-23T01:58:41;98014.72;;;18.02;100.00
70815;BME280;58428;49.478;10.986;2023-05-23T02:01:08;98023.31;;;18.01;100.00
70815;BME280;58428;49.478;10.986;2023-05-23T02:03:34;98029.53;;;17.98;100.00
70815;BME280;58428;49.478;10.986;2023-05-23T02:05:59;98025.19;;;17.90;100.00
70815;BME280;58428;49.478;10.986;2023-05-23T02:08:25;98035.72;;;17.88;100.00
70815;BME280;58428;49.478;10.986;2023-05-23T02:10:50;98031.41;;;17.83;100.00
70815;BME280;58428;49.478;10.986;2023-05-23T02:13:17;98030.94;;;17.74;100.00
70815;BME280;58428;49.478;10.986;2023-05-23T02:15:44;98027.41;;;17.70;100.00
70815;BME280;58428;49.478;10.986;2023-05-23T02:18:09;98027.75;;;17.62;100.00
70815;BME280;58428;49.478;10.986;2023-05-23T02:20:35;98022.63;;;17.61;100.00
70815;BME280;58428;49.478;10.986;2023-05-23T02:23:01;98023.78;;;17.56;100.00
70815;BME280;58428;49.478;10.986;2023-05-23T02:25:27;98020.28;;;17.56;100.00
70815;BME280;58428;49.478;10.986;2023-05-23T02:27:52;98017.47;;;17.49;100.00
70815;BME280;58428;49.478;10.986;2023-05-23T02:30:19;98022.16;;;17.48;100.00
70815;BME280;58428;49.478;10.986;2023-05-23T02:32:44;98024.88;;;17.45;100.00
70815;BME280;58428;49.478;10.986;2023-05-23T02:35:10;98025.63;;;17.42;100.00
70815;BME280;58428;49.478;10.986;2023-05-23T02:37:36;98033.00;;;17.34;100.00
70815;BME280;58428;49.478;10.986;2023-05-23T02:40:01;98029.44;;;17.31;100.00
70815;BME280;58428;49.478;10.986;2023-05-23T02:42:27;98034.50;;;17.29;100.00
70815;BME280;58428;49.478;10.986;2023-05-23T02:44:52;98039.97;;;17.29;100.00
70815;BME280;58428;49.478;10.986;2023-05-23T02:47:18;98036.84;;;17.27;100.00
70815;BME280;58428;49.478;10.986;2023-05-23T02:49:43;98049.28;;;17.24;100.00
70815;BME280;58428;49.478;10.986;2023-05-23T02:52:09;98050.81;;;17.18;100.00
70815;BME280;58428;49.478;10.986;2023-05-23T02:54:34;98049.25;;;17.17;100.00
70815;BME280;58428;49.478;10.986;2023-05-23T02:57:00;98044.19;;;17.19;100.00
70815;BME280;58428;49.478;10.986;2023-05-23T02:59:25;98057.81;;;17.16;100.00
70815;BME280;58428;49.478;10.986;2023-05-23T03:01:51;98048.78;;;17.12;100.00
70815;BME280;58428;49.478;10.986;2023-05-23T03:04:16;98055.78;;;17.13;100.00
70815;BME280;58428;49.478;10.986;2023-05-23T03:06:42;98065.84;;;17.02;100.00
70815;BME280;58428;49.478;10.986;2023-05-23T03:09:09;98053.75;;;17.03;100.00
70815;BME280;58428;49.478;10.986;2023-05-23T03:11:34;98059.22;;;17.03;100.00
70815;BME280;58428;49.478;10.986;2023-05-23T03:14:00;98056.47;;;17.03;100.00
70815;BME280;58428;49.478;10.986;2023-05-23T03:16:26;98061.94;;;17.03;100.00
70815;BME280;58428;49.478;10.986;2023-05-23T03:18:52;98061.94;;;16.99;100.00
70815;BME280;58428;49.478;10.986;2023-05-23T03:21:17;98062.72;;;17.00;100.00
70815;BME280;58428;49.478;10.986;2023-05-23T03:23:42;98059.97;;;17.00;100.00
70815;BME280;58428;49.478;10.986;2023-05-23T03:26:08;98066.19;;;16.97;100.00
70815;BME280;58428;49.478;10.986;2023-05-23T03:28:33;98074.00;;;16.98;100.00
70815;BME280;58428;49.478;10.986;2023-05-23T03:30:59;98080.66;;;17.01;100.00
70815;BME280;58428;49.478;10.986;2023-05-23T03:33:24;98081.16;;;17.10;100.00
70815;BME280;58428;49.478;10.986;2023-05-23T03:35:50;98092.47;;;17.08;100.00
70815;BME280;58428;49.478;10.986;2023-05-23T03:38:17;98090.91;;;17.07;100.00
70815;BME280;58428;49.478;10.986;2023-05-23T03:40:42;98091.28;;;17.06;100.00
70815;BME280;58428;49.478;10.986;2023-05-23T03:43:08;98103.44;;;17.12;100.00
70815;BME280;58428;49.478;10.986;2023-05-23T03:45:33;98098.88;;;17.19;100.00
70815;BME280;58428;49.478;10.986;2023-05-23T03:47:59;98094.88;;;17.13;100.00
70815;BME280;58428;49.478;10.986;2023-05-23T03:50:24;98090.56;;;17.12;100.00
70815;BME280;58428;49.478;10.986;2023-05-23T03:52:50;98098.75;;;17.12;100.00
70815;BME280;58428;49.478;10.986;2023-05-23T03:55:16;98102.38;;;17.20;100.00
70815;BME280;58428;49.478;10.986;2023-05-23T03:57:41;98102.38;;;17.20;100.00
70815;BME280;58428;49.478;10.986;2023-05-23T04:00:07;98093.81;;;17.21;100.00
70815;BME280;58428;49.478;10.986;2023-05-23T04:02:37;98103.59;;;17.26;100.00
70815;BME280;58428;49.478;10.986;2023-05-23T04:05:06;98093.84;;;17.25;100.00
70815;BME280;58428;49.478;10.986;2023-05-23T04:07:31;98095.78;;;17.24;100.00
70815;BME280;58428;49.478;10.986;2023-05-23T04:10:01;98101.59;;;17.19;100.00
70815;BME280;58428;49.478;10.986;2023-05-23T04:12:26;98097.72;;;17.24;100.00
70815;BME280;58428;49.478;10.986;2023-05-23T04:14:54;98107.16;;;17.30;100.00
70815;BME280;58428;49.478;10.986;2023-05-23T04:17:20;98114.97;;;17.28;100.00
70815;BME280;58428;49.478;10.986;2023-05-23T04:19:46;98112.16;;;17.21;100.00
70815;BME280;58428;49.478;10.986;2023-05-23T04:22:12;98111.06;;;17.29;100.00
70815;BME280;58428;49.478;10.986;2023-05-23T04:24:40;98111.84;;;17.29;100.00
70815;BME280;58428;49.478;10.986;2023-05-23T04:27:05;98110.31;;;17.32;100.00
70815;BME280;58428;49.478;10.986;2023-05-23T04:29:32;98115.75;;;17.28;100.00
70815;BME280;58428;49.478;10.986;2023-05-23T04:31:58;98124.34;;;17.27;100.00
70815;BME280;58428;49.478;10.986;2023-05-23T04:34:25;98129.41;;;17.28;100.00
70815;BME280;58428;49.478;10.986;2023-05-23T04:36:51;98124.72;;;17.25;100.00
70815;BME280;58428;49.478;10.986;2023-05-23T04:39:18;98124.28;;;17.23;100.00
70815;BME280;58428;49.478;10.986;2023-05-23T04:41:45;98125.50;;;17.26;100.00
70815;BME280;58428;49.478;10.986;2023-05-23T04:44:12;98135.34;;;17.33;100.00
70815;BME280;58428;49.478;10.986;2023-05-23T04:46:39;98131.78;;;17.30;100.00
70815;BME280;58428;49.478;10.986;2023-05-23T04:49:09;98132.16;;;17.28;100.00
70815;BME280;58428;49.478;10.986;2023-05-23T04:51:36;98128.25;;;17.29;100.00
70815;BME280;58428;49.478;10.986;2023-05-23T04:54:02;98137.31;;;17.36;100.00
70815;BME280;58428;49.478;10.986;2023-05-23T04:56:27;98137.34;;;17.40;100.00
70815;BME280;58428;49.478;10.986;2023-05-23T04:58:53;98142.97;;;17.54;100.00
70815;BME280;58428;49.478;10.986;2023-05-23T05:01:19;98141.06;;;17.58;100.00
70815;BME280;58428;49.478;10.986;2023-05-23T05:03:44;98138.78;;;17.67;100.00
70815;BME280;58428;49.478;10.986;2023-05-23T05:06:13;98149.41;;;17.75;100.00
70815;BME280;58428;49.478;10.986;2023-05-23T05:08:40;98142.44;;;17.81;100.00
70815;BME280;58428;49.478;10.986;2023-05-23T05:11:06;98152.69;;;17.91;100.00
70815;BME280;58428;49.478;10.986;2023-05-23T05:13:31;98155.81;;;17.93;100.00
70815;BME280;58428;49.478;10.986;2023-05-23T05:15:57;98155.84;;;18.00;100.00
70815;BME280;58428;49.478;10.986;2023-05-23T05:18:27;98151.59;;;18.02;100.00
70815;BME280;58428;49.478;10.986;2023-05-23T05:20:53;98150.50;;;18.10;100.00
70815;BME280;58428;49.478;10.986;2023-05-23T05:23:24;98152.06;;;18.11;100.00
70815;BME280;58428;49.478;10.986;2023-05-23T05:25:49;98153.19;;;18.06;100.00
70815;BME280;58428;49.478;10.986;2023-05-23T05:28:15;98155.59;;;18.08;100.00
70815;BME280;58428;49.478;10.986;2023-05-23T05:30:41;98155.44;;;17.98;100.00
70815;BME280;58428;49.478;10.986;2023-05-23T05:33:07;98151.16;;;17.97;100.00
70815;BME280;58428;49.478;10.986;2023-05-23T05:35:33;98148.38;;;17.93;100.00
70815;BME280;58428;49.478;10.986;2023-05-23T05:38:02;98157.84;;;18.03;100.00
70815;BME280;58428;49.478;10.986;2023-05-23T05:40:32;98156.41;;;18.12;100.00
70815;BME280;58428;49.478;10.986;2023-05-23T05:42:58;98154.50;;;18.19;100.00
70815;BME280;58428;49.478;10.986;2023-05-23T05:45:24;98153.72;;;18.22;100.00
70815;BME280;58428;49.478;10.986;2023-05-23T05:47:50;98157.72;;;18.35;100.00
70815;BME280;58428;49.478;10.986;2023-05-23T05:50:16;98156.97;;;18.42;100.00
70815;BME280;58428;49.478;10.986;2023-05-23T05:52:44;98160.22;;;18.61;100.00
70815;BME280;58428;49.478;10.986;2023-05-23T05:55:10;98167.34;;;18.76;100.00
70815;BME280;58428;49.478;10.986;2023-05-23T05:57:39;98161.06;;;18.68;100.00
70815;BME280;58428;49.478;10.986;2023-05-23T06:00:06;98164.66;;;18.86;100.00
70815;BME280;58428;49.478;10.986;2023-05-23T06:02:43;98164.72;;;18.96;100.00
70815;BME280;58428;49.478;10.986;2023-05-23T06:05:29;98163.19;;;19.02;100.00
70815;BME280;58428;49.478;10.986;2023-05-23T06:07:54;98164.78;;;19.14;100.00
70815;BME280;58428;49.478;10.986;2023-05-23T06:10:20;98165.28;;;19.40;100.00
70815;BME280;58428;49.478;10.986;2023-05-23T06:12:45;98158.22;;;19.56;100.00
70815;BME280;58428;49.478;10.986;2023-05-23T06:15:11;98165.72;;;19.69;100.00
70815;BME280;58428;49.478;10.986;2023-05-23T06:17:38;98164.56;;;19.88;100.00
70815;BME280;58428;49.478;10.986;2023-05-23T06:20:04;98169.28;;;20.08;100.00
70815;BME280;58428;49.478;10.986;2023-05-23T06:22:31;98164.97;;;20.00;100.00
70815;BME280;58428;49.478;10.986;2023-05-23T06:24:57;98164.97;;;20.17;100.00
70815;BME280;58428;49.478;10.986;2023-05-23T06:27:22;98168.88;;;20.13;100.00
70815;BME280;58428;49.478;10.986;2023-05-23T06:29:49;98158.69;;;20.06;100.00
70815;BME280;58428;49.478;10.986;2023-05-23T06:32:15;98165.75;;;20.04;100.00
70815;BME280;58428;49.478;10.986;2023-05-23T06:34:41;98163.00;;;19.90;100.00
70815;BME280;58428;49.478;10.986;2023-05-23T06:37:06;98176.34;;;19.88;100.00
70815;BME280;58428;49.478;10.986;2023-05-23T06:39:32;98172.81;;;19.91;100.00
70815;BME280;58428;49.478;10.986;2023-05-23T06:41:57;98163.41;;;19.89;100.00
70815;BME280;58428;49.478;10.986;2023-05-23T06:44:23;98168.09;;;20.09;100.00
70815;BME280;58428;49.478;10.986;2023-05-23T06:46:48;98171.25;;;20.00;100.00
70815;BME280;58428;49.478;10.986;2023-05-23T06:49:14;98173.63;;;20.05;100.00
70815;BME280;58428;49.478;10.986;2023-05-23T06:51:41;98160.63;;;20.40;100.00
70815;BME280;58428;49.478;10.986;2023-05-23T06:54:06;98169.22;;;20.70;100.00
70815;BME280;58428;49.478;10.986;2023-05-23T06:56:32;98167.63;;;20.72;100.00
70815;BME280;58428;49.478;10.986;2023-05-23T06:58:58;98176.28;;;20.61;100.00
70815;BME280;58428;49.478;10.986;2023-05-23T07:01:23;98178.25;;;20.74;100.00
70815;BME280;58428;49.478;10.986;2023-05-23T07:03:49;98177.47;;;20.77;100.00
70815;BME280;58428;49.478;10.986;2023-05-23T07:06:15;98187.22;;;20.95;100.00
70815;BME280;58428;49.478;10.986;2023-05-23T07:08:40;98178.50;;;21.10;100.00
70815;BME280;58428;49.478;10.986;2023-05-23T07:11:05;98181.22;;;21.21;100.00
70815;BME280;58428;49.478;10.986;2023-05-23T07:13:31;98193.69;;;21.46;100.00
70815;BME280;58428;49.478;10.986;2023-05-23T07:15:57;98190.53;;;21.51;100.00
70815;BME280;58428;49.478;10.986;2023-05-23T07:18:23;98196.81;;;21.51;100.00
70815;BME280;58428;49.478;10.986;2023-05-23T07:20:51;98191.38;;;21.41;100.00
70815;BME280;58428;49.478;10.986;2023-05-23T07:23:16;98199.31;;;21.11;100.00
70815;BME280;58428;49.478;10.986;2023-05-23T07:25:42;98199.03;;;20.82;100.00
70815;BME280;58428;49.478;10.986;2023-05-23T07:28:08;98194.34;;;20.75;100.00
70815;BME280;58428;49.478;10.986;2023-05-23T07:30:36;98193.94;;;20.80;100.00
70815;BME280;58428;49.478;10.986;2023-05-23T07:33:02;98194.66;;;21.05;100.00
70815;BME280;58428;49.478;10.986;2023-05-23T07:35:30;98195.47;;;20.88;100.00
70815;BME280;58428;49.478;10.986;2023-05-23T07:37:55;98199.47;;;20.56;100.00
70815;BME280;58428;49.478;10.986;2023-05-23T07:40:21;98206.56;;;20.50;100.00
70815;BME280;58428;49.478;10.986;2023-05-23T07:42:47;98215.59;;;20.40;100.00
70815;BME280;58428;49.478;10.986;2023-05-23T07:45:13;98205.75;;;20.36;100.00
70815;BME280;58428;49.478;10.986;2023-05-23T07:47:39;98207.31;;;20.58;100.00
70815;BME280;58428;49.478;10.986;2023-05-23T07:50:24;98208.50;;;20.39;100.00
70815;BME280;58428;49.478;10.986;2023-05-23T07:52:52;98209.28;;;20.43;100.00
70815;BME280;58428;49.478;10.986;2023-05-23T07:55:17;98204.97;;;20.73;100.00
70815;BME280;58428;49.478;10.986;2023-05-23T07:57:45;98200.19;;;20.95;100.00
70815;BME280;58428;49.478;10.986;2023-05-23T08:00:13;98215.06;;;21.07;100.00
70815;BME280;58428;49.478;10.986;2023-05-23T08:02:39;98210.59;;;21.48;100.00
70815;BME280;58428;49.478;10.986;2023-05-23T08:05:05;98208.28;;;21.33;100.00
70815;BME280;58428;49.478;10.986;2023-05-23T08:07:31;98212.63;;;21.27;100.00
70815;BME280;58428;49.478;10.986;2023-05-23T08:09:56;98210.63;;;21.34;100.00
70815;BME280;58428;49.478;10.986;2023-05-23T08:12:21;98217.72;;;21.42;100.00
70815;BME280;58428;49.478;10.986;2023-05-23T08:14:47;98214.13;;;21.52;100.00
70815;BME280;58428;49.478;10.986;2023-05-23T08:17:12;98214.16;;;21.48;100.00
70815;BME280;58428;49.478;10.986;2023-05-23T08:19:38;98206.22;;;21.57;100.00
70815;BME280;58428;49.478;10.986;2023-05-23T08:22:03;98203.75;;;21.77;100.00
70815;BME280;58428;49.478;10.986;2023-05-23T08:24:29;98201.63;;;21.98;100.00
70815;BME280;58428;49.478;10.986;2023-05-23T08:26:58;98205.91;;;22.02;100.00
70815;BME280;58428;49.478;10.986;2023-05-23T08:29:25;98205.53;;;22.00;100.00
70815;BME280;58428;49.478;10.986;2023-05-23T08:31:50;98208.19;;;22.21;100.00
70815;BME280;58428;49.478;10.986;2023-05-23T08:34:16;98218.41;;;22.24;100.00
70815;BME280;58428;49.478;10.986;2023-05-23T08:36:43;98210.28;;;21.96;100.00
70815;BME280;58428;49.478;10.986;2023-05-23T08:39:11;98208.94;;;22.25;100.00
70815;BME280;58428;49.478;10.986;2023-05-23T08:41:38;98209.72;;;22.69;100.00
70815;BME280;58428;49.478;10.986;2023-05-23T08:44:03;98220.28;;;22.74;100.00
70815;BME280;58428;49.478;10.986;2023-05-23T08:46:28;98221.41;;;22.40;100.00
70815;BME280;58428;49.478;10.986;2023-05-23T08:48:57;98220.56;;;22.46;100.00
70815;BME280;58428;49.478;10.986;2023-05-23T08:51:25;98221.88;;;22.31;100.00
70815;BME280;58428;49.478;10.986;2023-05-23T08:53:52;98228.69;;;22.13;100.00
70815;BME280;58428;49.478;10.986;2023-05-23T08:56:20;98234.97;;;22.20;100.00
70815;BME280;58428;49.478;10.986;2023-05-23T08:58:46;98226.34;;;22.15;100.00
70815;BME280;58428;49.478;10.986;2023-05-23T09:01:12;98229.56;;;22.00;100.00
70815;BME280;58428;49.478;10.986;2023-05-23T09:03:40;98239.91;;;21.82;100.00
70815;BME280;58428;49.478;10.986;2023-05-23T09:06:09;98231.09;;;22.04;100.00
70815;BME280;58428;49.478;10.986;2023-05-23T09:08:36;98228.69;;;22.13;100.00
70815;BME280;58428;49.478;10.986;2023-05-23T09:11:03;98248.38;;;22.08;100.00
70815;BME280;58428;49.478;10.986;2023-05-23T09:13:29;98243.38;;;21.93;100.00
70815;BME280;58428;49.478;10.986;2023-05-23T09:16:06;98249.63;;;22.00;100.00
70815;BME280;58428;49.478;10.986;2023-05-23T09:18:39;98245.63;;;22.08;100.00
70815;BME280;58428;49.478;10.986;2023-05-23T09:21:07;98240.97;;;21.98;100.00
70815;BME280;58428;49.478;10.986;2023-05-23T09:23:35;98253.13;;;22.15;100.00
70815;BME280;58428;49.478;10.986;2023-05-23T09:26:07;98250.00;;;22.02;100.00
70815;BME280;58428;49.478;10.986;2023-05-23T09:28:34;98251.56;;;22.07;100.00
70815;BME280;58428;49.478;10.986;2023-05-23T09:31:05;98254.13;;;22.38;100.00
70815;BME280;58428;49.478;10.986;2023-05-23T09:33:48;98249.50;;;22.68;100.00
70815;BME280;58428;49.478;10.986;2023-05-23T09:36:15;98260.19;;;23.06;100.00
70815;BME280;58428;49.478;10.986;2023-05-23T09:38:45;98258.19;;;23.10;100.00
70815;BME280;58428;49.478;10.986;2023-05-23T09:41:13;98262.06;;;22.72;100.00
70815;BME280;58428;49.478;10.986;2023-05-23T09:43:39;98266.13;;;22.61;100.00
70815;BME280;58428;49.478;10.986;2023-05-23T09:46:13;98267.91;;;22.81;100.00
70815;BME280;58428;49.478;10.986;2023-05-23T09:48:48;98279.41;;;22.76;100.00
70815;BME280;58428;49.478;10.986;2023-05-23T09:51:19;98271.41;;;22.89;100.00
70815;BME280;58428;49.478;10.986;2023-05-23T09:53:46;98278.66;;;23.12;100.00
70815;BME280;58428;49.478;10.986;2023-05-23T09:56:12;98276.69;;;22.69;100.00
70815;BME280;58428;49.478;10.986;2023-05-23T09:58:45;98280.16;;;22.80;100.00
70815;BME280;58428;49.478;10.986;2023-05-23T10:01:11;98281.63;;;22.91;100.00
70815;BME280;58428;49.478;10.986;2023-05-23T10:03:48;98279.56;;;22.99;100.00
70815;BME280;58428;49.478;10.986;2023-05-23T10:09:31;98286.78;;;22.39;100.00
70815;BME280;58428;49.478;10.986;2023-05-23T10:14:39;98286.31;;;21.87;100.00
70815;BME280;58428;49.478;10.986;2023-05-23T10:17:18;98285.00;;;22.16;100.00
70815;BME280;58428;49.478;10.986;2023-05-23T10:19:59;98276.09;;;22.45;100.00
70815;BME280;58428;49.478;10.986;2023-05-23T10:22:26;98274.47;;;22.51;100.00
70815;BME280;58428;49.478;10.986;2023-05-23T10:24:52;98271.91;;;22.77;100.00
70815;BME280;58428;49.478;10.986;2023-05-23T10:27:19;98270.31;;;22.76;100.00
70815;BME280;58428;49.478;10.986;2023-05-23T10:29:46;98278.50;;;22.90;100.00
70815;BME280;58428;49.478;10.986;2023-05-23T10:32:13;98274.81;;;23.03;100.00
70815;BME280;58428;49.478;10.986;2023-05-23T10:38:29;98298.09;;;22.55;100.00
70815;BME280;58428;49.478;10.986;2023-05-23T10:40:52;98297.78;;;22.43;100.00
70815;BME280;58428;49.478;10.986;2023-05-23T10:43:33;98303.06;;;22.70;100.00
70815;BME280;58428;49.478;10.986;2023-05-23T10:46:01;98301.13;;;22.67;100.00
70815;BME280;58428;49.478;10.986;2023-05-23T10:48:33;98297.06;;;22.82;100.00
70815;BME280;58428;49.478;10.986;2023-05-23T10:51:12;98301.13;;;23.11;100.00
70815;BME280;58428;49.478;10.986;2023-05-23T10:53:42;98301.75;;;23.28;100.00
70815;BME280;58428;49.478;10.986;2023-05-23T10:56:09;98303.34;;;23.63;100.00
70815;BME280;58428;49.478;10.986;2023-05-23T10:58:36;98303.09;;;23.83;100.00
70815;BME280;58428;49.478;10.986;2023-05-23T11:03:37;98297.91;;;23.56;100.00
70815;BME280;58428;49.478;10.986;2023-05-23T11:06:41;98314.13;;;23.14;100.00
70815;BME280;58428;49.478;10.986;2023-05-23T11:19:55;98317.09;;;22.93;100.00
70815;BME280;58428;49.478;10.986;2023-05-23T11:22:27;98310.44;;;22.84;100.00
70815;BME280;58428;49.478;10.986;2023-05-23T11:24:55;98311.53;;;22.96;100.00
70815;BME280;58428;49.478;10.986;2023-05-23T11:30:10;98307.53;;;23.41;100.00
70815;BME280;58428;49.478;10.986;2023-05-23T11:32:37;98302.63;;;23.55;100.00
70815;BME280;58428;49.478;10.986;2023-05-23T11:35:05;98298.00;;;23.78;100.00
70815;BME280;58428;49.478;10.986;2023-05-23T11:37:32;98311.13;;;23.71;100.00
70815;BME280;58428;49.478;10.986;2023-05-23T11:39:58;98312.38;;;23.66;100.00
70815;BME280;58428;49.478;10.986;2023-05-23T11:42:24;98314.81;;;23.25;100.00
70815;BME280;58428;49.478;10.986;2023-05-23T11:44:50;98303.97;;;23.07;100.00
70815;BME280;58428;49.478;10.986;2023-05-23T11:47:16;98302.19;;;23.24;100.00
70815;BME280;58428;49.478;10.986;2023-05-23T11:49:46;98295.38;;;22.98;100.00
70815;BME280;58428;49.478;10.986;2023-05-23T11:52:12;98311.25;;;22.84;100.00
70815;BME280;58428;49.478;10.986;2023-05-23T11:54:41;98297.56;;;23.14;100.00
70815;BME280;58428;49.478;10.986;2023-05-23T11:57:08;98299.84;;;23.59;100.00
70815;BME280;58428;49.478;10.986;2023-05-23T11:59:35;98301.44;;;23.89;100.00
70815;BME280;58428;49.478;10.986;2023-05-23T12:02:05;98298.50;;;24.00;100.00
70815;BME280;58428;49.478;10.986;2023-05-23T12:04:33;98297.56;;;24.09;100.00
70815;BME280;58428;49.478;10.986;2023-05-23T12:07:03;98307.09;;;24.08;99.67
70815;BME280;58428;49.478;10.986;2023-05-23T12:09:29;98299.69;;;24.02;100.00
70815;BME280;58428;49.478;10.986;2023-05-23T12:11:54;98306.09;;;23.92;99.90
70815;BME280;58428;49.478;10.986;2023-05-23T12:14:20;98309.41;;;23.47;98.55
70815;BME280;58428;49.478;10.986;2023-05-23T12:16:47;98309.31;;;23.25;100.00
70815;BME280;58428;49.478;10.986;2023-05-23T12:19:14;98307.84;;;22.66;100.00
70815;BME280;58428;49.478;10.986;2023-05-23T12:26:52;98310.25;;;21.97;100.00
70815;BME280;58428;49.478;10.986;2023-05-23T12:29:28;98310.06;;;21.60;100.00
70815;BME280;58428;49.478;10.986;2023-05-23T12:31:57;98312.84;;;21.46;100.00
70815;BME280;58428;49.478;10.986;2023-05-23T12:34:23;98310.16;;;21.26;100.00
70815;BME280;58428;49.478;10.986;2023-05-23T12:36:49;98315.97;;;21.59;100.00
70815;BME280;58428;49.478;10.986;2023-05-23T12:39:29;98321.81;;;21.68;100.00
70815;BME280;58428;49.478;10.986;2023-05-23T12:42:07;98311.09;;;21.90;100.00
70815;BME280;58428;49.478;10.986;2023-05-23T12:44:39;98314.56;;;22.05;100.00
70815;BME280;58428;49.478;10.986;2023-05-23T12:47:05;98314.66;;;21.87;100.00
70815;BME280;58428;49.478;10.986;2023-05-23T12:49:30;98325.34;;;21.72;100.00
70815;BME280;58428;49.478;10.986;2023-05-23T12:51:56;98328.97;;;21.55;100.00
70815;BME280;58428;49.478;10.986;2023-05-23T12:54:21;98321.13;;;21.33;100.00
70815;BME280;58428;49.478;10.986;2023-05-23T12:56:47;98324.28;;;21.45;100.00
70815;BME280;58428;49.478;10.986;2023-05-23T12:59:12;98327.31;;;21.68;100.00
70815;BME280;58428;49.478;10.986;2023-05-23T13:01:39;98322.94;;;21.87;100.00
70815;BME280;58428;49.478;10.986;2023-05-23T13:04:05;98322.72;;;22.25;100.00
70815;BME280;58428;49.478;10.986;2023-05-23T13:06:31;98319.34;;;22.58;100.00
70815;BME280;58428;49.478;10.986;2023-05-23T13:08:58;98322.13;;;22.54;100.00
70815;BME280;58428;49.478;10.986;2023-05-23T13:11:25;98324.78;;;22.04;100.00
70815;BME280;58428;49.478;10.986;2023-05-23T13:13:52;98328.91;;;21.72;100.00
70815;BME280;58428;49.478;10.986;2023-05-23T13:16:19;98329.78;;;21.45;100.00
70815;BME280;58428;49.478;10.986;2023-05-23T13:18:45;98332.53;;;21.48;100.00